sensor_id;sensor_type;location;lat;lon;timestamp;temperature;humidity
14993;DHT22;7592;51.088;13.732;2023-04-26T00:00:05;8.10;99.90
14993;DHT22;7592;51.088;13.732;2023-04-26T00:05:00;8.10;99.90
14993;DHT22;7592;51.088;13.732;2023-04-26T00:09:53;8.00;99.90
14993;DHT22;7592;51.088;13.732;2023-04-26T00:14:45;8.00;99.90
14993;DHT22;7592;51.088;13.732;2023-04-26T00:19:37;7.90;99.90
14993;DHT22;7592;51.088;13.732;2023-04-26T00:24:30;7.80;99.90
14993;DHT22;7592;51.088;13.732;2023-04-26T00:29:23;7.80;99.90
14993;DHT22;7592;51.088;13.732;2023-04-26T00:34:15;7.50;99.90
14993;DHT22;7592;51.088;13.732;2023-04-26T00:39:07;7.40;99.90
14993;DHT22;7592;51.088;13.732;2023-04-26T00:44:00;7.30;99.90
14993;DHT22;7592;51.088;13.732;2023-04-26T00:48:52;7.20;99.90
14993;DHT22;7592;51.088;13.732;2023-04-26T00:53:44;7.00;99.90
14993;DHT22;7592;51.088;13.732;2023-04-26T00:58:37;6.80;99.90
14993;DHT22;7592;51.088;13.732;2023-04-26T01:03:29;6.50;99.90
14993;DHT22;7592;51.088;13.732;2023-04-26T01:08:45;6.20;99.90
14993;DHT22;7592;51.088;13.732;2023-04-26T01:13:56;6.20;99.90
14993;DHT22;7592;51.088;13.732;2023-04-26T01:18:52;6.00;99.90
14993;DHT22;7592;51.088;13.732;2023-04-26T01:23:45;5.80;99.90
14993;DHT22;7592;51.088;13.732;2023-04-26T01:28:37;5.70;99.90
14993;DHT22;7592;51.088;13.732;2023-04-26T01:33:29;5.70;99.90
14993;DHT22;7592;51.088;13.732;2023-04-26T01:38:21;5.80;99.90
14993;DHT22;7592;51.088;13.732;2023-04-26T01:43:13;5.80;99.90
14993;DHT22;7592;51.088;13.732;2023-04-26T01:48:06;6.00;99.90
14993;DHT22;7592;51.088;13.732;2023-04-26T01:52:59;6.00;99.90
14993;DHT22;7592;51.088;13.732;2023-04-26T01:57:52;6.00;99.90
14993;DHT22;7592;51.088;13.732;2023-04-26T02:02:44;6.00;99.90
14993;DHT22;7592;51.088;13.732;2023-04-26T02:07:36;6.10;99.90
14993;DHT22;7592;51.088;13.732;2023-04-26T02:12:29;6.20;99.90
14993;DHT22;7592;51.088;13.732;2023-04-26T02:17:21;6.30;99.90
14993;DHT22;7592;51.088;13.732;2023-04-26T02:22:14;6.40;99.90
14993;DHT22;7592;51.088;13.732;2023-04-26T02:27:06;6.50;99.90
14993;DHT22;7592;51.088;13.732;2023-04-26T02:31:59;6.50;99.90
14993;DHT22;7592;51.088;13.732;2023-04-26T02:36:51;6.50;99.90
14993;DHT22;7592;51.088;13.732;2023-04-26T02:41:43;6.40;99.90
14993;DHT22;7592;51.088;13.732;2023-04-26T02:46:36;6.50;99.90
14993;DHT22;7592;51.088;13.732;2023-04-26T02:51:29;6.50;99.90
14993;DHT22;7592;51.088;13.732;2023-04-26T02:56:21;6.50;99.90
14993;DHT22;7592;51.088;13.732;2023-04-26T03:01:13;6.40;99.90
14993;DHT22;7592;51.088;13.732;2023-04-26T03:06:07;6.30;99.90
14993;DHT22;7592;51.088;13.732;2023-04-26T03:10:59;6.10;99.90
14993;DHT22;7592;51.088;13.732;2023-04-26T03:15:52;6.00;99.90
14993;DHT22;7592;51.088;13.732;2023-04-26T03:20:45;6.00;99.90
14993;DHT22;7592;51.088;13.732;2023-04-26T03:25:38;6.00;99.90
14993;DHT22;7592;51.088;13.732;2023-04-26T03:30:31;5.90;99.90
14993;DHT22;7592;51.088;13.732;2023-04-26T03:35:23;5.70;99.90
14993;DHT22;7592;51.088;13.732;2023-04-26T03:40:16;5.50;99.90
14993;DHT22;7592;51.088;13.732;2023-04-26T03:45:10;5.30;99.90
14993;DHT22;7592;51.088;13.732;2023-04-26T03:50:04;5.20;99.90
14993;DHT22;7592;51.088;13.732;2023-04-26T03:54:57;5.10;99.90
14993;DHT22;7592;51.088;13.732;2023-04-26T03:59:49;5.10;99.90
14993;DHT22;7592;51.088;13.732;2023-04-26T04:04:41;5.10;99.90
14993;DHT22;7592;51.088;13.732;2023-04-26T04:09:33;5.10;99.90
14993;DHT22;7592;51.088;13.732;2023-04-26T04:14:26;5.20;99.90
14993;DHT22;7592;51.088;13.732;2023-04-26T04:19:19;5.30;99.90
14993;DHT22;7592;51.088;13.732;2023-04-26T04:24:11;5.60;99.90
14993;DHT22;7592;51.088;13.732;2023-04-26T04:29:04;5.90;99.90
14993;DHT22;7592;51.088;13.732;2023-04-26T04:34:01;6.10;99.90
14993;DHT22;7592;51.088;13.732;2023-04-26T04:38:53;6.20;99.90
14993;DHT22;7592;51.088;13.732;2023-04-26T04:43:47;6.40;99.90
14993;DHT22;7592;51.088;13.732;2023-04-26T04:48:40;6.70;99.90
14993;DHT22;7592;51.088;13.732;2023-04-26T04:53:33;8.10;99.90
14993;DHT22;7592;51.088;13.732;2023-04-26T04:58:25;8.50;99.90
14993;DHT22;7592;51.088;13.732;2023-04-26T05:03:17;8.40;99.90
14993;DHT22;7592;51.088;13.732;2023-04-26T05:08:11;8.20;99.90
14993;DHT22;7592;51.088;13.732;2023-04-26T05:13:03;8.20;99.90
14993;DHT22;7592;51.088;13.732;2023-04-26T05:17:57;8.10;99.90
14993;DHT22;7592;51.088;13.732;2023-04-26T05:22:50;8.30;99.90
14993;DHT22;7592;51.088;13.732;2023-04-26T05:27:42;10.90;99.90
14993;DHT22;7592;51.088;13.732;2023-04-26T05:33:01;16.10;99.90
14993;DHT22;7592;51.088;13.732;2023-04-26T05:38:00;20.30;79.40
14993;DHT22;7592;51.088;13.732;2023-04-26T05:42:52;21.50;65.30
14993;DHT22;7592;51.088;13.732;2023-04-26T05:47:44;23.30;59.10
14993;DHT22;7592;51.088;13.732;2023-04-26T05:52:38;23.90;55.50
14993;DHT22;7592;51.088;13.732;2023-04-26T05:57:30;24.80;53.70
14993;DHT22;7592;51.088;13.732;2023-04-26T06:02:22;21.80;56.00
14993;DHT22;7592;51.088;13.732;2023-04-26T06:07:15;21.60;57.20
14993;DHT22;7592;51.088;13.732;2023-04-26T06:12:10;18.10;63.80
14993;DHT22;7592;51.088;13.732;2023-04-26T06:17:06;16.30;69.00
14993;DHT22;7592;51.088;13.732;2023-04-26T06:21:58;15.10;71.70
14993;DHT22;7592;51.088;13.732;2023-04-26T06:26:51;14.70;73.70
14993;DHT22;7592;51.088;13.732;2023-04-26T06:31:44;17.00;71.10
14993;DHT22;7592;51.088;13.732;2023-04-26T06:36:37;22.80;59.40
14993;DHT22;7592;51.088;13.732;2023-04-26T06:41:29;22.60;54.90
14993;DHT22;7592;51.088;13.732;2023-04-26T06:46:22;21.50;57.30
14993;DHT22;7592;51.088;13.732;2023-04-26T06:51:17;23.10;54.90
14993;DHT22;7592;51.088;13.732;2023-04-26T06:56:09;21.70;55.50
14993;DHT22;7592;51.088;13.732;2023-04-26T07:01:02;24.90;53.00
14993;DHT22;7592;51.088;13.732;2023-04-26T07:05:54;24.70;51.40
14993;DHT22;7592;51.088;13.732;2023-04-26T07:10:47;25.50;48.90
14993;DHT22;7592;51.088;13.732;2023-04-26T07:15:39;26.30;48.40
14993;DHT22;7592;51.088;13.732;2023-04-26T07:20:33;25.40;47.40
14993;DHT22;7592;51.088;13.732;2023-04-26T07:25:25;22.20;50.00
14993;DHT22;7592;51.088;13.732;2023-04-26T07:30:18;24.00;51.30
14993;DHT22;7592;51.088;13.732;2023-04-26T07:35:11;22.60;49.70
14993;DHT22;7592;51.088;13.732;2023-04-26T07:40:07;19.70;53.90
14993;DHT22;7592;51.088;13.732;2023-04-26T07:45:01;20.50;55.50
14993;DHT22;7592;51.088;13.732;2023-04-26T07:49:54;24.40;49.10
14993;DHT22;7592;51.088;13.732;2023-04-26T07:54:46;21.40;51.70
14993;DHT22;7592;51.088;13.732;2023-04-26T07:59:38;22.80;51.30
14993;DHT22;7592;51.088;13.732;2023-04-26T08:04:32;21.50;50.60
14993;DHT22;7592;51.088;13.732;2023-04-26T08:09:25;22.00;50.90
14993;DHT22;7592;51.088;13.732;2023-04-26T08:14:17;22.60;50.10
14993;DHT22;7592;51.088;13.732;2023-04-26T08:19:09;21.70;51.30
14993;DHT22;7592;51.088;13.732;2023-04-26T08:24:02;19.30;54.50
14993;DHT22;7592;51.088;13.732;2023-04-26T08:28:54;18.60;55.40
14993;DHT22;7592;51.088;13.732;2023-04-26T08:33:48;17.30;57.00
14993;DHT22;7592;51.088;13.732;2023-04-26T08:38:40;15.70;60.80
14993;DHT22;7592;51.088;13.732;2023-04-26T08:43:35;14.70;63.20
14993;DHT22;7592;51.088;13.732;2023-04-26T08:48:29;17.20;58.70
14993;DHT22;7592;51.088;13.732;2023-04-26T08:53:23;21.20;51.40
14993;DHT22;7592;51.088;13.732;2023-04-26T08:58:19;19.60;52.50
14993;DHT22;7592;51.088;13.732;2023-04-26T09:03:13;17.30;56.20
14993;DHT22;7592;51.088;13.732;2023-04-26T09:08:06;18.00;56.70
14993;DHT22;7592;51.088;13.732;2023-04-26T09:12:58;21.30;51.30
14993;DHT22;7592;51.088;13.732;2023-04-26T09:17:51;21.90;49.20
14993;DHT22;7592;51.088;13.732;2023-04-26T09:22:44;20.10;51.60
14993;DHT22;7592;51.088;13.732;2023-04-26T09:27:39;18.90;53.90
14993;DHT22;7592;51.088;13.732;2023-04-26T09:32:57;18.90;53.90
14993;DHT22;7592;51.088;13.732;2023-04-26T09:38:00;23.50;48.50
14993;DHT22;7592;51.088;13.732;2023-04-26T09:48:21;23.70;44.50
14993;DHT22;7592;51.088;13.732;2023-04-26T09:53:27;19.80;49.30
14993;DHT22;7592;51.088;13.732;2023-04-26T09:58:20;18.60;53.30
14993;DHT22;7592;51.088;13.732;2023-04-26T10:03:14;19.30;51.20
14993;DHT22;7592;51.088;13.732;2023-04-26T10:08:07;18.30;51.60
14993;DHT22;7592;51.088;13.732;2023-04-26T10:12:59;18.20;51.90
14993;DHT22;7592;51.088;13.732;2023-04-26T10:17:51;17.70;52.60
14993;DHT22;7592;51.088;13.732;2023-04-26T10:22:48;16.60;55.10
14993;DHT22;7592;51.088;13.732;2023-04-26T10:53:09;19.30;50.30
14993;DHT22;7592;51.088;13.732;2023-04-26T10:58:01;18.30;51.40
14993;DHT22;7592;51.088;13.732;2023-04-26T11:03:04;18.20;52.50
14993;DHT22;7592;51.088;13.732;2023-04-26T11:08:14;18.10;52.80
14993;DHT22;7592;51.088;13.732;2023-04-26T11:13:07;17.30;53.70
14993;DHT22;7592;51.088;13.732;2023-04-26T11:18:08;16.70;55.80
14993;DHT22;7592;51.088;13.732;2023-04-26T11:23:00;16.90;55.40
14993;DHT22;7592;51.088;13.732;2023-04-26T11:28:00;17.40;54.40
14993;DHT22;7592;51.088;13.732;2023-04-26T11:32:53;17.10;53.80
14993;DHT22;7592;51.088;13.732;2023-04-26T11:37:45;17.20;55.00
14993;DHT22;7592;51.088;13.732;2023-04-26T11:42:40;17.60;55.60
14993;DHT22;7592;51.088;13.732;2023-04-26T11:47:33;17.70;53.50
14993;DHT22;7592;51.088;13.732;2023-04-26T11:52:27;17.20;53.80
14993;DHT22;7592;51.088;13.732;2023-04-26T11:57:19;16.40;55.20
14993;DHT22;7592;51.088;13.732;2023-04-26T12:02:11;15.90;56.10
14993;DHT22;7592;51.088;13.732;2023-04-26T12:07:05;15.70;57.40
14993;DHT22;7592;51.088;13.732;2023-04-26T12:12:02;15.90;58.20
14993;DHT22;7592;51.088;13.732;2023-04-26T12:17:00;16.60;56.70
14993;DHT22;7592;51.088;13.732;2023-04-26T12:21:54;17.40;54.10
14993;DHT22;7592;51.088;13.732;2023-04-26T12:26:46;18.00;54.20
14993;DHT22;7592;51.088;13.732;2023-04-26T12:31:39;18.40;53.70
14993;DHT22;7592;51.088;13.732;2023-04-26T12:36:32;18.10;53.50
14993;DHT22;7592;51.088;13.732;2023-04-26T12:41:24;17.90;54.30
14993;DHT22;7592;51.088;13.732;2023-04-26T12:46:17;18.20;54.60
14993;DHT22;7592;51.088;13.732;2023-04-26T12:51:09;18.50;53.80
14993;DHT22;7592;51.088;13.732;2023-04-26T12:56:01;18.40;53.90
14993;DHT22;7592;51.088;13.732;2023-04-26T13:00:56;17.70;53.30
14993;DHT22;7592;51.088;13.732;2023-04-26T13:05:49;17.30;54.20
14993;DHT22;7592;51.088;13.732;2023-04-26T13:10:41;16.80;55.30
14993;DHT22;7592;51.088;13.732;2023-04-26T13:15:33;16.20;56.40
14993;DHT22;7592;51.088;13.732;2023-04-26T13:20:25;15.60;56.90
14993;DHT22;7592;51.088;13.732;2023-04-26T13:25:21;15.10;58.80
14993;DHT22;7592;51.088;13.732;2023-04-26T13:30:13;15.30;58.90
14993;DHT22;7592;51.088;13.732;2023-04-26T13:35:06;15.80;57.60
14993;DHT22;7592;51.088;13.732;2023-04-26T13:39:59;16.10;57.50
14993;DHT22;7592;51.088;13.732;2023-04-26T13:44:52;16.10;56.90
14993;DHT22;7592;51.088;13.732;2023-04-26T13:49:44;16.00;57.10
14993;DHT22;7592;51.088;13.732;2023-04-26T13:54:36;16.10;57.30
14993;DHT22;7592;51.088;13.732;2023-04-26T13:59:30;16.20;57.20
14993;DHT22;7592;51.088;13.732;2023-04-26T14:04:23;16.30;56.10
14993;DHT22;7592;51.088;13.732;2023-04-26T14:09:15;16.40;56.40
14993;DHT22;7592;51.088;13.732;2023-04-26T14:14:08;16.20;56.30
14993;DHT22;7592;51.088;13.732;2023-04-26T14:19:01;16.10;57.10
14993;DHT22;7592;51.088;13.732;2023-04-26T14:23:53;15.80;56.70
14993;DHT22;7592;51.088;13.732;2023-04-26T14:28:45;15.70;57.90
14993;DHT22;7592;51.088;13.732;2023-04-26T14:33:38;15.50;57.80
14993;DHT22;7592;51.088;13.732;2023-04-26T14:38:30;15.40;58.30
14993;DHT22;7592;51.088;13.732;2023-04-26T14:43:22;15.20;59.00
14993;DHT22;7592;51.088;13.732;2023-04-26T14:48:14;15.00;59.40
14993;DHT22;7592;51.088;13.732;2023-04-26T14:53:07;14.60;59.90
14993;DHT22;7592;51.088;13.732;2023-04-26T14:58:00;14.70;60.40
14993;DHT22;7592;51.088;13.732;2023-04-26T15:02:52;14.70;59.90
14993;DHT22;7592;51.088;13.732;2023-04-26T15:07:45;14.80;59.80
14993;DHT22;7592;51.088;13.732;2023-04-26T15:12:37;15.00;60.10
14993;DHT22;7592;51.088;13.732;2023-04-26T15:17:33;15.00;59.50
14993;DHT22;7592;51.088;13.732;2023-04-26T15:22:25;14.80;59.60
14993;DHT22;7592;51.088;13.732;2023-04-26T15:27:17;14.60;60.50
14993;DHT22;7592;51.088;13.732;2023-04-26T15:32:09;14.50;61.10
14993;DHT22;7592;51.088;13.732;2023-04-26T15:37:02;14.20;61.00
14993;DHT22;7592;51.088;13.732;2023-04-26T15:41:54;14.00;61.80
14993;DHT22;7592;51.088;13.732;2023-04-26T15:46:46;13.80;62.50
14993;DHT22;7592;51.088;13.732;2023-04-26T15:51:38;13.60;62.10
14993;DHT22;7592;51.088;13.732;2023-04-26T15:56:30;13.80;61.60
14993;DHT22;7592;51.088;13.732;2023-04-26T16:01:23;13.90;61.00
14993;DHT22;7592;51.088;13.732;2023-04-26T16:06:15;13.80;61.70
14993;DHT22;7592;51.088;13.732;2023-04-26T16:11:07;13.80;62.80
14993;DHT22;7592;51.088;13.732;2023-04-26T16:15:59;13.60;63.40
14993;DHT22;7592;51.088;13.732;2023-04-26T16:20:51;13.60;62.80
14993;DHT22;7592;51.088;13.732;2023-04-26T16:25:44;13.50;64.00
14993;DHT22;7592;51.088;13.732;2023-04-26T16:30:36;13.30;63.90
14993;DHT22;7592;51.088;13.732;2023-04-26T16:35:28;13.00;64.40
14993;DHT22;7592;51.088;13.732;2023-04-26T16:40:21;12.70;65.20
14993;DHT22;7592;51.088;13.732;2023-04-26T16:45:14;12.50;65.60
14993;DHT22;7592;51.088;13.732;2023-04-26T16:50:07;12.20;64.60
14993;DHT22;7592;51.088;13.732;2023-04-26T16:55:01;12.10;65.80
14993;DHT22;7592;51.088;13.732;2023-04-26T16:59:54;12.10;67.10
14993;DHT22;7592;51.088;13.732;2023-04-26T17:04:47;12.20;67.50
14993;DHT22;7592;51.088;13.732;2023-04-26T17:09:40;12.10;67.50
14993;DHT22;7592;51.088;13.732;2023-04-26T17:14:32;11.80;67.40
14993;DHT22;7592;51.088;13.732;2023-04-26T17:19:24;11.80;68.10
14993;DHT22;7592;51.088;13.732;2023-04-26T17:24:16;11.60;68.70
14993;DHT22;7592;51.088;13.732;2023-04-26T17:29:08;11.50;70.90
14993;DHT22;7592;51.088;13.732;2023-04-26T17:34:08;11.40;70.40
14993;DHT22;7592;51.088;13.732;2023-04-26T17:39:01;11.40;70.90
14993;DHT22;7592;51.088;13.732;2023-04-26T17:43:53;11.30;71.10
14993;DHT22;7592;51.088;13.732;2023-04-26T17:48:45;11.20;72.00
14993;DHT22;7592;51.088;13.732;2023-04-26T17:53:38;11.00;72.40
14993;DHT22;7592;51.088;13.732;2023-04-26T17:58:30;10.90;72.20
14993;DHT22;7592;51.088;13.732;2023-04-26T18:03:22;10.90;73.20
14993;DHT22;7592;51.088;13.732;2023-04-26T18:08:15;10.80;73.90
14993;DHT22;7592;51.088;13.732;2023-04-26T18:13:07;10.80;74.40
14993;DHT22;7592;51.088;13.732;2023-04-26T18:18:01;10.70;75.10
14993;DHT22;7592;51.088;13.732;2023-04-26T18:22:56;10.60;74.90
14993;DHT22;7592;51.088;13.732;2023-04-26T18:27:48;10.50;75.80
14993;DHT22;7592;51.088;13.732;2023-04-26T18:32:40;10.40;77.20
14993;DHT22;7592;51.088;13.732;2023-04-26T18:37:32;10.30;77.60
14993;DHT22;7592;51.088;13.732;2023-04-26T18:42:24;10.20;78.60
14993;DHT22;7592;51.088;13.732;2023-04-26T18:47:17;10.20;78.50
14993;DHT22;7592;51.088;13.732;2023-04-26T18:52:09;10.10;79.40
14993;DHT22;7592;51.088;13.732;2023-04-26T18:57:01;10.10;80.70
14993;DHT22;7592;51.088;13.732;2023-04-26T19:01:54;10.00;81.30
14993;DHT22;7592;51.088;13.732;2023-04-26T19:06:46;10.00;81.70
14993;DHT22;7592;51.088;13.732;2023-04-26T19:11:38;10.00;82.50
14993;DHT22;7592;51.088;13.732;2023-04-26T19:16:31;9.80;84.20
14993;DHT22;7592;51.088;13.732;2023-04-26T19:21:23;9.70;85.80
14993;DHT22;7592;51.088;13.732;2023-04-26T19:26:15;9.50;88.10
14993;DHT22;7592;51.088;13.732;2023-04-26T19:31:07;9.30;90.90
14993;DHT22;7592;51.088;13.732;2023-04-26T19:35:59;9.00;94.10
14993;DHT22;7592;51.088;13.732;2023-04-26T19:40:51;8.70;99.00
14993;DHT22;7592;51.088;13.732;2023-04-26T19:45:44;8.40;99.90
14993;DHT22;7592;51.088;13.732;2023-04-26T19:50:40;8.20;99.90
14993;DHT22;7592;51.088;13.732;2023-04-26T19:55:33;8.10;99.90
14993;DHT22;7592;51.088;13.732;2023-04-26T20:00:25;7.90;99.90
14993;DHT22;7592;51.088;13.732;2023-04-26T20:05:17;7.80;99.90
14993;DHT22;7592;51.088;13.732;2023-04-26T20:10:10;7.60;99.90
14993;DHT22;7592;51.088;13.732;2023-04-26T20:15:02;7.40;99.90
14993;DHT22;7592;51.088;13.732;2023-04-26T20:19:54;7.20;99.90
14993;DHT22;7592;51.088;13.732;2023-04-26T20:24:47;7.10;99.90
14993;DHT22;7592;51.088;13.732;2023-04-26T20:29:39;7.00;99.90
14993;DHT22;7592;51.088;13.732;2023-04-26T20:34:31;6.80;99.90
14993;DHT22;7592;51.088;13.732;2023-04-26T20:39:24;6.70;99.90
14993;DHT22;7592;51.088;13.732;2023-04-26T20:44:18;6.50;99.90
14993;DHT22;7592;51.088;13.732;2023-04-26T20:49:11;6.40;99.90
14993;DHT22;7592;51.088;13.732;2023-04-26T20:54:03;6.30;99.90
14993;DHT22;7592;51.088;13.732;2023-04-26T20:58:55;6.20;99.90
14993;DHT22;7592;51.088;13.732;2023-04-26T21:03:48;5.90;99.90
14993;DHT22;7592;51.088;13.732;2023-04-26T21:08:40;5.80;99.90
14993;DHT22;7592;51.088;13.732;2023-04-26T21:13:33;5.60;99.90
14993;DHT22;7592;51.088;13.732;2023-04-26T21:18:27;5.40;99.90
14993;DHT22;7592;51.088;13.732;2023-04-26T21:23:19;5.30;99.90
14993;DHT22;7592;51.088;13.732;2023-04-26T21:28:11;5.10;99.90
14993;DHT22;7592;51.088;13.732;2023-04-26T21:33:03;5.10;99.90
14993;DHT22;7592;51.088;13.732;2023-04-26T21:37:55;5.20;99.90
14993;DHT22;7592;51.088;13.732;2023-04-26T21:42:47;5.20;99.90
14993;DHT22;7592;51.088;13.732;2023-04-26T21:47:54;5.10;99.90
14993;DHT22;7592;51.088;13.732;2023-04-26T21:52:47;4.90;99.90
14993;DHT22;7592;51.088;13.732;2023-04-26T21:57:39;4.60;99.90
14993;DHT22;7592;51.088;13.732;2023-04-26T22:02:31;4.50;99.90
14993;DHT22;7592;51.088;13.732;2023-04-26T22:07:24;4.40;99.90
14993;DHT22;7592;51.088;13.732;2023-04-26T22:12:16;4.50;99.90
14993;DHT22;7592;51.088;13.732;2023-04-26T22:17:11;4.60;99.90
14993;DHT22;7592;51.088;13.732;2023-04-26T22:22:02;4.40;99.90
14993;DHT22;7592;51.088;13.732;2023-04-26T22:26:55;4.30;99.90
14993;DHT22;7592;51.088;13.732;2023-04-26T22:31:48;4.20;99.90
14993;DHT22;7592;51.088;13.732;2023-04-26T22:36:40;4.20;99.90
14993;DHT22;7592;51.088;13.732;2023-04-26T22:41:33;4.00;99.90
14993;DHT22;7592;51.088;13.732;2023-04-26T22:46:25;3.80;99.90
14993;DHT22;7592;51.088;13.732;2023-04-26T22:51:19;3.80;99.90
14993;DHT22;7592;51.088;13.732;2023-04-26T22:56:11;3.80;99.90
14993;DHT22;7592;51.088;13.732;2023-04-26T23:01:04;3.60;99.90
14993;DHT22;7592;51.088;13.732;2023-04-26T23:05:57;3.60;99.90
14993;DHT22;7592;51.088;13.732;2023-04-26T23:10:49;3.70;99.90
14993;DHT22;7592;51.088;13.732;2023-04-26T23:15:42;3.60;99.90
14993;DHT22;7592;51.088;13.732;2023-04-26T23:20:34;3.50;99.90
14993;DHT22;7592;51.088;13.732;2023-04-26T23:25:26;3.40;99.90
14993;DHT22;7592;51.088;13.732;2023-04-26T23:30:19;3.20;99.90
14993;DHT22;7592;51.088;13.732;2023-04-26T23:35:13;3.10;99.90
14993;DHT22;7592;51.088;13.732;2023-04-26T23:40:06;3.00;99.90
14993;DHT22;7592;51.088;13.732;2023-04-26T23:45:01;3.00;99.90
14993;DHT22;7592;51.088;13.732;2023-04-26T23:49:54;3.10;99.90
14993;DHT22;7592;51.088;13.732;2023-04-26T23:54:46;3.00;99.90
14993;DHT22;7592;51.088;13.732;2023-04-26T23:59:38;3.00;99.90
